Current Weather

Burlington Muni

Burlington, Wisconsin (KBUU)

Report from: Sunday, September 25, 2022 9:35 PM CDT
Current time: Sunday, September 25, 2022 9:49 PM CDT

Nearby weather
Weather history
Weather forecast

Temperature9.6°C (49.3°F)
Dew point8.8°C (47.8°F)
Winds Calm
Visibility10 mi. (16.1 km)
Clouds Scattered clouds 6,000 ft. (1,829 m)
Scattered clouds 8,000 ft. (2,438 m)
Altimeter29.81 in.Hg (1009 mB)
Relative humidity95 %
Density altitude-357 ft. (-109 m)
Remarks Fully automated report
Automated weather observing station with precipitation discriminator
Present weather sensor not operating
Flight conditions Visual Meteorological Conditions
Raw dataKBUU 260235Z AUTO 00000KT 10SM SCT060 SCT080 10/09 A2981 RMK AO2 T00960088 PWINO
An error has occurred. This application may no longer respond until reloaded. Reload 🗙